Time;durP1;ratioP1;P1;durP2;ratioP2;P2;SDS_P1;SDS_P2;PMS_P1;PMS_P2;Temp;Humidity;BMP_temperature;BMP_pressure;BME280_temperature;BME280_humidity;BME280_pressure;Samples;Min_cycle;Max_cycle;Signal;HPM_P1;HPM_P2
2021/10/17 00:00:37;;;;;;;;;;;13.80;40.90;;;;;;4359797;32;19962;-37
2021/10/17 00:03:03;;;;;;;;;;;13.80;41.00;;;;;;4360172;32;19993;-38
2021/10/17 00:05:31;;;;;;;;;;;13.70;41.10;;;;;;4359460;32;19962;-38
2021/10/17 00:07:57;;;;;;;;;;;13.60;41.10;;;;;;4345645;32;20034;-39
2021/10/17 00:10:28;;;;;;;;;;;13.60;41.10;;;;;;4359071;32;19997;-38
2021/10/17 00:12:56;;;;;;;;;;;13.50;41.10;;;;;;4359385;32;20406;-39
2021/10/17 00:15:23;;;;;;;;;;;13.50;41.10;;;;;;4345735;32;19958;-39
2021/10/17 00:17:49;;;;;;;;;;;13.50;41.00;;;;;;4359288;32;19985;-37
2021/10/17 00:20:17;;;;;;;;;;;13.40;40.90;;;;;;4359180;32;20433;-39
2021/10/17 00:22:43;;;;;;;;;;;13.40;41.00;;;;;;4359464;32;19962;-39
2021/10/17 00:25:10;;;;;;;;;;;13.40;41.20;;;;;;4359234;32;19974;-37
2021/10/17 00:27:36;;;;;;;;;;;13.40;41.20;;;;;;4359489;32;20406;-39
2021/10/17 00:30:03;;;;;;;;;;;13.40;41.20;;;;;;4358998;32;19973;-39
2021/10/17 00:32:29;;;;;;;;;;;13.40;41.20;;;;;;4358947;32;20009;-40
2021/10/17 00:34:58;;;;;;;;;;;13.40;41.40;;;;;;4359031;32;19970;-38
2021/10/17 00:37:30;;;;;;;;;;;13.40;41.50;;;;;;4358954;32;20344;-39
2021/10/17 00:39:56;;;;;;;;;;;13.40;42.10;;;;;;4332779;32;20355;-39
2021/10/17 00:42:23;;;;;;;;;;;13.40;41.40;;;;;;4359029;32;20437;-39
2021/10/17 00:44:59;;;;;;;;;;;13.40;41.40;;;;;;4358925;32;19974;-38
2021/10/17 00:47:25;;;;;;;;;;;13.40;41.50;;;;;;4359197;32;19970;-38
2021/10/17 00:49:52;;;;;;;;;;;13.40;41.60;;;;;;4358934;32;20060;-38
2021/10/17 00:52:18;;;;;;;;;;;13.50;41.60;;;;;;4345367;32;19975;-37
2021/10/17 00:54:44;;;;;;;;;;;13.60;41.50;;;;;;4358709;32;19976;-38
2021/10/17 00:57:11;;;;;;;;;;;13.60;41.50;;;;;;4357536;32;19966;-39
2021/10/17 00:59:38;;;;;;;;;;;13.70;41.50;;;;;;4358992;32;20070;-38
2021/10/17 01:02:04;;;;;;;;;;;13.80;41.40;;;;;;4358683;32;20142;-38
2021/10/17 01:04:32;;;;;;;;;;;13.80;41.30;;;;;;4359007;32;19998;-38
2021/10/17 01:06:58;;;;;;;;;;;13.80;41.30;;;;;;4344893;32;19966;-38
2021/10/17 01:09:24;;;;;;;;;;;13.80;41.30;;;;;;4358657;32;19989;-39
2021/10/17 01:11:50;;;;;;;;;;;13.90;41.20;;;;;;4358439;32;20031;-38
2021/10/17 01:14:22;;;;;;;;;;;13.90;41.00;;;;;;4358443;32;19973;-38
2021/10/17 01:16:49;;;;;;;;;;;13.90;40.80;;;;;;4358207;32;20062;-38
2021/10/17 01:19:15;;;;;;;;;;;13.80;40.80;;;;;;4358470;32;19963;-38
2021/10/17 01:21:41;;;;;;;;;;;13.80;40.60;;;;;;4358135;32;19986;-38
2021/10/17 01:24:08;;;;;;;;;;;13.70;40.60;;;;;;4359042;32;19967;-39
2021/10/17 01:26:34;;;;;;;;;;;13.70;40.60;;;;;;4358608;32;19970;-38
2021/10/17 01:29:01;;;;;;;;;;;13.60;40.50;;;;;;4358354;32;20450;-38
2021/10/17 01:31:38;;;;;;;;;;;13.60;40.50;;;;;;4358694;32;19978;-39
2021/10/17 01:34:05;;;;;;;;;;;13.60;40.50;;;;;;4358669;32;19962;-39
2021/10/17 01:36:32;;;;;;;;;;;13.60;40.50;;;;;;4358496;32;20394;-37
2021/10/17 01:38:59;;;;;;;;;;;13.60;40.50;;;;;;4358512;32;19973;-38
2021/10/17 01:41:25;;;;;;;;;;;13.50;40.50;;;;;;4358418;32;20406;-38
2021/10/17 01:43:51;;;;;;;;;;;13.60;40.60;;;;;;4358378;32;19977;-38
2021/10/17 01:46:18;;;;;;;;;;;13.60;40.60;;;;;;4366739;32;20030;-38
2021/10/17 01:48:44;;;;;;;;;;;13.60;40.70;;;;;;4359637;32;20016;-38
2021/10/17 01:51:10;;;;;;;;;;;13.70;40.70;;;;;;4373502;32;19963;-38
2021/10/17 01:53:36;;;;;;;;;;;13.80;41.30;;;;;;4373492;32;19977;-38
2021/10/17 01:56:02;;;;;;;;;;;13.90;40.40;;;;;;4373361;32;20001;-39
2021/10/17 01:58:30;;;;;;;;;;;14.00;40.20;;;;;;4375729;32;20038;-39
2021/10/17 02:00:56;;;;;;;;;;;14.10;39.90;;;;;;4375918;32;19958;-37
2021/10/17 02:03:22;;;;;;;;;;;14.20;39.70;;;;;;4376251;32;19973;-38
2021/10/17 02:05:48;;;;;;;;;;;14.30;39.60;;;;;;4375865;32;19993;-39
2021/10/17 02:08:14;;;;;;;;;;;14.30;39.50;;;;;;4362032;32;19984;-38
2021/10/17 02:10:41;;;;;;;;;;;14.40;39.40;;;;;;4376451;32;19962;-39
2021/10/17 02:13:07;;;;;;;;;;;14.40;39.20;;;;;;4375940;32;20396;-39
2021/10/17 02:15:33;;;;;;;;;;;14.40;39.10;;;;;;4376275;32;20065;-38
2021/10/17 02:17:59;;;;;;;;;;;14.50;39.00;;;;;;4376223;32;20406;-37
2021/10/17 02:20:25;;;;;;;;;;;14.50;38.80;;;;;;4375584;32;19962;-38
2021/10/17 02:22:51;;;;;;;;;;;14.50;38.70;;;;;;4375729;32;19973;-38
2021/10/17 02:25:18;;;;;;;;;;;14.50;38.60;;;;;;4376093;32;20045;-38
2021/10/17 02:27:44;;;;;;;;;;;14.50;38.50;;;;;;4376126;32;19966;-38
2021/10/17 02:30:10;;;;;;;;;;;14.60;38.50;;;;;;4375521;32;19957;-38
2021/10/17 02:32:36;;;;;;;;;;;14.60;38.30;;;;;;4375688;32;20462;-38
2021/10/17 02:35:03;;;;;;;;;;;14.60;38.20;;;;;;4375700;32;19977;-38
2021/10/17 02:37:30;;;;;;;;;;;14.60;38.20;;;;;;4375793;32;19958;-38
2021/10/17 02:39:59;;;;;;;;;;;14.60;38.20;;;;;;4375669;32;19970;-38
2021/10/17 02:42:25;;;;;;;;;;;14.50;38.10;;;;;;4375316;32;19966;-37
2021/10/17 02:44:51;;;;;;;;;;;14.50;38.10;;;;;;4375528;32;19973;-38
2021/10/17 02:47:18;;;;;;;;;;;14.50;38.10;;;;;;4361233;32;20437;-37
2021/10/17 02:49:44;;;;;;;;;;;14.40;38.20;;;;;;4346647;32;19985;-39
2021/10/17 02:52:10;;;;;;;;;;;14.40;38.20;;;;;;4360207;32;20393;-39
2021/10/17 02:54:36;;;;;;;;;;;14.40;38.30;;;;;;4360549;32;20044;-38
2021/10/17 02:57:02;;;;;;;;;;;14.30;38.30;;;;;;4360426;32;20051;-38
2021/10/17 02:59:29;;;;;;;;;;;14.30;38.30;;;;;;4360683;32;19966;-37
2021/10/17 03:01:55;;;;;;;;;;;14.30;38.40;;;;;;4360451;32;20112;-38
2021/10/17 03:04:21;;;;;;;;;;;14.30;38.40;;;;;;4360549;32;20362;-39
2021/10/17 03:06:47;;;;;;;;;;;14.30;38.40;;;;;;4360483;32;20043;-42
2021/10/17 03:09:13;;;;;;;;;;;14.30;38.40;;;;;;4360444;32;19966;-40
2021/10/17 03:11:40;;;;;;;;;;;14.40;38.40;;;;;;4360196;32;20362;-38
2021/10/17 03:14:06;;;;;;;;;;;14.40;38.40;;;;;;4360311;32;19959;-39
2021/10/17 03:16:32;;;;;;;;;;;14.40;38.40;;;;;;4346365;32;20061;-38
2021/10/17 03:18:58;;;;;;;;;;;14.40;38.30;;;;;;4360176;32;19994;-38
2021/10/17 03:21:25;;;;;;;;;;;14.50;38.30;;;;;;4359819;32;20394;-37
2021/10/17 03:23:51;;;;;;;;;;;14.50;38.20;;;;;;4359969;32;19966;-38
2021/10/17 03:26:17;;;;;;;;;;;14.60;38.10;;;;;;4359844;32;20000;-39
2021/10/17 03:28:44;;;;;;;;;;;14.60;37.90;;;;;;4359997;32;19970;-38
2021/10/17 03:31:10;;;;;;;;;;;14.60;37.80;;;;;;4359834;32;20148;-38
2021/10/17 03:33:37;;;;;;;;;;;14.60;37.70;;;;;;4360138;32;20005;-38
2021/10/17 03:36:04;;;;;;;;;;;14.60;37.50;;;;;;4359803;32;19967;-38
2021/10/17 03:38:30;;;;;;;;;;;14.60;37.40;;;;;;4359745;32;20370;-37
2021/10/17 03:40:56;;;;;;;;;;;14.70;37.40;;;;;;4359914;32;19962;-38
2021/10/17 03:43:22;;;;;;;;;;;14.70;37.30;;;;;;4359763;32;19985;-38
2021/10/17 03:45:49;;;;;;;;;;;14.70;37.20;;;;;;4364741;32;19969;-38
2021/10/17 03:48:15;;;;;;;;;;;14.80;37.10;;;;;;4374582;32;19954;-38
2021/10/17 03:50:41;;;;;;;;;;;14.80;37.10;;;;;;4374159;32;19962;-39
2021/10/17 03:53:07;;;;;;;;;;;14.90;37.00;;;;;;4374126;32;19958;-38
2021/10/17 03:55:34;;;;;;;;;;;15.00;37.00;;;;;;4360139;32;19985;-38
2021/10/17 03:58:00;;;;;;;;;;;15.00;36.90;;;;;;4374306;32;19961;-38
2021/10/17 04:00:27;;;;;;;;;;;15.00;36.80;;;;;;4374216;32;19994;-39
2021/10/17 04:02:53;;;;;;;;;;;15.10;36.80;;;;;;4374010;32;19982;-38
2021/10/17 04:05:19;;;;;;;;;;;15.10;36.80;;;;;;4360498;32;19970;-39
2021/10/17 04:07:46;;;;;;;;;;;15.10;36.80;;;;;;4374420;32;20446;-38
2021/10/17 04:10:12;;;;;;;;;;;15.10;36.70;;;;;;4374086;32;20002;-38
2021/10/17 04:12:38;;;;;;;;;;;15.10;36.70;;;;;;4374305;32;19970;-38
2021/10/17 04:15:05;;;;;;;;;;;15.20;36.80;;;;;;4374409;32;19970;-37
2021/10/17 04:17:32;;;;;;;;;;;15.20;36.70;;;;;;4373767;32;20464;-38
2021/10/17 04:19:58;;;;;;;;;;;15.20;36.80;;;;;;4373727;32;19983;-38
2021/10/17 04:22:24;;;;;;;;;;;15.30;36.90;;;;;;4373562;32;19954;-38
2021/10/17 04:24:50;;;;;;;;;;;15.30;37.00;;;;;;4374599;32;19961;-39
2021/10/17 04:27:17;;;;;;;;;;;15.30;36.90;;;;;;4374168;32;19969;-39
2021/10/17 04:29:43;;;;;;;;;;;15.40;36.90;;;;;;4373820;32;20001;-38
2021/10/17 04:32:09;;;;;;;;;;;15.50;36.90;;;;;;4374061;32;19969;-39
2021/10/17 04:34:36;;;;;;;;;;;15.50;36.70;;;;;;4374002;32;20050;-39
2021/10/17 04:37:02;;;;;;;;;;;15.60;36.50;;;;;;4373731;32;20051;-38
2021/10/17 04:39:28;;;;;;;;;;;15.70;36.30;;;;;;4373872;32;20403;-39
2021/10/17 04:41:55;;;;;;;;;;;15.70;36.30;;;;;;4373628;32;20456;-38
2021/10/17 04:44:24;;;;;;;;;;;15.70;36.10;;;;;;4360054;32;20486;-38
2021/10/17 04:46:50;;;;;;;;;;;15.70;36.00;;;;;;4349566;32;20509;-38
2021/10/17 04:49:16;;;;;;;;;;;15.60;36.10;;;;;;4359022;32;19973;-38
2021/10/17 04:51:42;;;;;;;;;;;15.60;36.20;;;;;;4358710;32;20067;-37
2021/10/17 04:54:09;;;;;;;;;;;15.60;36.30;;;;;;4358363;32;19990;-37
2021/10/17 04:56:35;;;;;;;;;;;15.60;36.30;;;;;;4358862;32;19986;-37
2021/10/17 04:59:01;;;;;;;;;;;15.60;36.30;;;;;;4344820;32;20013;-37
2021/10/17 05:01:28;;;;;;;;;;;15.50;36.30;;;;;;4358531;32;19974;-37
2021/10/17 05:03:54;;;;;;;;;;;15.40;36.60;;;;;;4358408;32;20402;-37
2021/10/17 05:06:20;;;;;;;;;;;15.40;36.50;;;;;;4358810;32;19992;-38
2021/10/17 05:08:46;;;;;;;;;;;15.40;36.60;;;;;;4358585;32;20351;-38
2021/10/17 05:11:13;;;;;;;;;;;15.40;36.80;;;;;;4358395;32;19974;-38
2021/10/17 05:13:39;;;;;;;;;;;15.30;37.00;;;;;;4358640;32;19966;-37
2021/10/17 05:16:05;;;;;;;;;;;15.30;37.60;;;;;;4358394;32;19977;-36
2021/10/17 05:18:31;;;;;;;;;;;15.10;37.90;;;;;;4358412;32;19958;-38
2021/10/17 05:20:58;;;;;;;;;;;15.00;38.20;;;;;;4358399;32;19958;-37
2021/10/17 05:23:24;;;;;;;;;;;14.90;38.60;;;;;;4358852;32;20022;-37
2021/10/17 05:25:50;;;;;;;;;;;14.80;38.90;;;;;;4358979;32;19970;-37
2021/10/17 05:28:16;;;;;;;;;;;14.70;39.10;;;;;;4358398;32;19990;-38
2021/10/17 05:30:43;;;;;;;;;;;14.70;39.20;;;;;;4359497;32;20034;-38
2021/10/17 05:33:09;;;;;;;;;;;14.60;39.30;;;;;;4347606;32;19971;-38
2021/10/17 05:35:35;;;;;;;;;;;14.60;39.50;;;;;;4361757;32;19977;-38
2021/10/17 05:38:01;;;;;;;;;;;14.60;39.70;;;;;;4361655;32;20067;-37
2021/10/17 05:40:28;;;;;;;;;;;14.60;39.80;;;;;;4361328;32;19967;-38
2021/10/17 05:42:54;;;;;;;;;;;14.60;39.90;;;;;;4361206;32;19998;-37
2021/10/17 05:45:20;;;;;;;;;;;14.70;40.00;;;;;;4363233;32;20446;-37
2021/10/17 05:47:46;;;;;;;;;;;14.70;39.90;;;;;;4376147;32;19959;-37
2021/10/17 05:50:13;;;;;;;;;;;14.80;40.00;;;;;;4362109;32;19993;-37
2021/10/17 05:52:39;;;;;;;;;;;14.80;39.90;;;;;;4376345;32;20049;-38
2021/10/17 05:55:05;;;;;;;;;;;14.90;39.90;;;;;;4376450;32;20399;-38
2021/10/17 05:57:33;;;;;;;;;;;14.90;39.90;;;;;;4376421;32;19965;-38
2021/10/17 05:59:59;;;;;;;;;;;14.90;39.90;;;;;;4375924;32;19958;-37
2021/10/17 06:02:26;;;;;;;;;;;15.00;39.90;;;;;;4376178;32;20421;-38
2021/10/17 06:04:52;;;;;;;;;;;15.00;39.80;;;;;;4375968;32;20043;-37
2021/10/17 06:07:19;;;;;;;;;;;15.10;39.80;;;;;;4375840;32;20023;-38
2021/10/17 06:09:45;;;;;;;;;;;15.10;39.70;;;;;;4376018;32;19954;-37
2021/10/17 06:12:11;;;;;;;;;;;15.10;39.70;;;;;;4375963;32;19985;-38
2021/10/17 06:14:37;;;;;;;;;;;15.20;39.70;;;;;;4375575;32;20059;-39
2021/10/17 06:17:04;;;;;;;;;;;15.20;39.70;;;;;;4375735;32;19969;-38
2021/10/17 06:19:30;;;;;;;;;;;15.20;39.40;;;;;;4361816;32;20410;-38
2021/10/17 06:21:57;;;;;;;;;;;15.30;39.40;;;;;;4361654;32;20634;-37
2021/10/17 06:24:23;;;;;;;;;;;15.30;39.70;;;;;;4376176;32;19997;-38
2021/10/17 06:26:49;;;;;;;;;;;15.30;39.30;;;;;;4375546;32;20070;-38
2021/10/17 06:29:16;;;;;;;;;;;15.40;39.30;;;;;;4361387;32;19966;-37
2021/10/17 06:31:42;;;;;;;;;;;15.40;39.20;;;;;;4375287;32;20041;-39
2021/10/17 06:34:08;;;;;;;;;;;15.50;39.30;;;;;;4375451;32;19973;-39
2021/10/17 06:36:35;;;;;;;;;;;15.50;39.20;;;;;;4375558;32;19966;-38
2021/10/17 06:39:02;;;;;;;;;;;15.50;39.10;;;;;;4375490;32;19994;-38
2021/10/17 06:41:28;;;;;;;;;;;15.50;39.10;;;;;;4361498;32;19973;-39
2021/10/17 06:43:56;;;;;;;;;;;15.60;39.10;;;;;;4375014;32;19970;-39
2021/10/17 06:46:23;;;;;;;;;;;15.60;39.20;;;;;;4353377;32;19966;-38
2021/10/17 06:48:49;;;;;;;;;;;15.60;39.20;;;;;;4360456;32;19985;-39
2021/10/17 06:51:15;;;;;;;;;;;15.70;39.20;;;;;;4359995;32;20000;-39
2021/10/17 06:53:41;;;;;;;;;;;15.90;39.20;;;;;;4360370;32;20009;-38
2021/10/17 06:56:07;;;;;;;;;;;15.90;39.10;;;;;;4360307;32;19962;-38
2021/10/17 06:58:33;;;;;;;;;;;16.00;39.00;;;;;;4360351;32;20029;-38
2021/10/17 07:01:00;;;;;;;;;;;16.20;39.00;;;;;;4360714;32;19958;-37
2021/10/17 07:03:26;;;;;;;;;;;16.30;38.90;;;;;;4360323;32;20559;-37
2021/10/17 07:05:52;;;;;;;;;;;16.40;38.70;;;;;;4360005;32;20068;-37
2021/10/17 07:08:18;;;;;;;;;;;16.50;38.70;;;;;;4359651;32;19966;-38
2021/10/17 07:10:44;;;;;;;;;;;16.70;38.30;;;;;;4360047;32;20411;-38
2021/10/17 07:13:10;;;;;;;;;;;16.70;38.00;;;;;;4359651;32;20426;-38
2021/10/17 07:15:37;;;;;;;;;;;16.70;38.00;;;;;;4359534;32;20073;-38
2021/10/17 07:18:03;;;;;;;;;;;16.80;37.90;;;;;;4327460;33;19982;-38
2021/10/17 07:20:29;;;;;;;;;;;16.80;37.70;;;;;;4328045;33;19963;-38
2021/10/17 07:22:56;;;;;;;;;;;16.90;37.60;;;;;;4327187;33;19979;-38
2021/10/17 07:25:23;;;;;;;;;;;16.90;37.50;;;;;;4328080;33;20137;-38
2021/10/17 07:27:52;;;;;;;;;;;16.90;37.50;;;;;;4327688;33;19975;-37
2021/10/17 07:30:20;;;;;;;;;;;16.90;37.60;;;;;;4327847;33;19997;-37
2021/10/17 07:32:46;;;;;;;;;;;17.00;37.60;;;;;;4327342;33;19986;-38
2021/10/17 07:35:12;;;;;;;;;;;17.10;37.60;;;;;;4315767;33;20075;-39
2021/10/17 07:37:38;;;;;;;;;;;17.10;37.50;;;;;;4327967;33;19975;-38
2021/10/17 07:40:06;;;;;;;;;;;17.10;37.50;;;;;;4327254;33;19970;-39
2021/10/17 07:42:32;;;;;;;;;;;17.20;37.50;;;;;;4327722;33;19975;-38
2021/10/17 07:44:58;;;;;;;;;;;17.20;37.50;;;;;;4327479;33;19971;-38
2021/10/17 07:47:25;;;;;;;;;;;17.20;37.40;;;;;;4314831;33;20052;-38
2021/10/17 07:49:52;;;;;;;;;;;17.30;37.40;;;;;;4354144;32;20031;-39
2021/10/17 07:52:18;;;;;;;;;;;17.30;37.30;;;;;;4359229;32;20036;-40
2021/10/17 07:54:44;;;;;;;;;;;17.30;37.30;;;;;;4358678;32;19970;-37
2021/10/17 07:57:11;;;;;;;;;;;17.30;37.30;;;;;;4359273;32;19974;-39
2021/10/17 07:59:37;;;;;;;;;;;17.40;37.20;;;;;;4345691;32;19965;-39
2021/10/17 08:02:04;;;;;;;;;;;17.40;37.10;;;;;;4359522;32;19982;-40
2021/10/17 08:04:30;;;;;;;;;;;17.50;37.10;;;;;;4359186;32;19962;-39
2021/10/17 08:06:56;;;;;;;;;;;17.60;37.10;;;;;;4359137;32;20430;-39
2021/10/17 08:09:22;;;;;;;;;;;17.70;37.00;;;;;;4358795;32;19970;-38
2021/10/17 08:11:48;;;;;;;;;;;17.80;36.90;;;;;;4358883;32;19962;-37
2021/10/17 08:14:14;;;;;;;;;;;17.90;36.80;;;;;;4358784;32;19974;-38
2021/10/17 08:16:41;;;;;;;;;;;17.90;36.70;;;;;;4358943;32;20068;-38
2021/10/17 08:19:07;;;;;;;;;;;17.90;36.60;;;;;;4358970;32;19965;-39
2021/10/17 08:21:33;;;;;;;;;;;17.90;36.70;;;;;;4359485;32;19981;-39
2021/10/17 08:23:59;;;;;;;;;;;17.90;36.70;;;;;;4358642;32;19992;-38
2021/10/17 08:26:25;;;;;;;;;;;18.00;36.70;;;;;;4311924;33;19971;-38
2021/10/17 08:28:53;;;;;;;;;;;18.00;36.60;;;;;;4312189;33;20034;-38
2021/10/17 08:31:19;;;;;;;;;;;17.90;36.70;;;;;;4311846;33;19972;-38
2021/10/17 08:33:45;;;;;;;;;;;17.90;36.90;;;;;;4312216;33;19967;-37
2021/10/17 08:36:11;;;;;;;;;;;17.90;37.00;;;;;;4311785;33;19983;-37
2021/10/17 08:38:38;;;;;;;;;;;17.90;37.00;;;;;;4311945;33;19971;-37
2021/10/17 08:41:06;;;;;;;;;;;17.90;37.00;;;;;;4312049;33;20427;-38
2021/10/17 08:43:32;;;;;;;;;;;17.90;36.90;;;;;;4282796;33;20051;-38
2021/10/17 08:45:58;;;;;;;;;;;17.90;36.90;;;;;;4288501;33;20131;-38
2021/10/17 08:48:27;;;;;;;;;;;17.90;37.00;;;;;;4297713;33;19975;-38
2021/10/17 08:50:53;;;;;;;;;;;17.90;37.10;;;;;;4285523;33;20160;-40
2021/10/17 08:53:19;;;;;;;;;;;17.90;37.20;;;;;;4285372;33;20044;-39
2021/10/17 08:55:45;;;;;;;;;;;17.90;37.20;;;;;;4297479;33;20044;-38
2021/10/17 08:58:12;;;;;;;;;;;18.00;37.40;;;;;;4321152;33;19990;-38
2021/10/17 09:00:38;;;;;;;;;;;18.10;37.40;;;;;;4341686;33;19983;-38
2021/10/17 09:03:04;;;;;;;;;;;18.20;37.40;;;;;;4341382;33;19971;-37
2021/10/17 09:05:39;;;;;;;;;;;18.10;37.20;;;;;;4340855;33;20434;-37
2021/10/17 09:08:08;;;;;;;;;;;18.10;37.20;;;;;;4329177;33;20443;-38
2021/10/17 09:10:35;;;;;;;;;;;18.10;37.20;;;;;;4341608;33;19962;-37
2021/10/17 09:13:09;;;;;;;;;;;18.00;37.30;;;;;;4311313;33;20465;-38
2021/10/17 09:15:36;;;;;;;;;;;18.00;37.40;;;;;;4312007;33;20397;-38
2021/10/17 09:18:05;;;;;;;;;;;18.00;37.50;;;;;;4312081;33;19998;-38
2021/10/17 09:20:56;;;;;;;;;;;18.00;38.30;;;;;;4316053;33;20419;-38
2021/10/17 09:23:22;;;;;;;;;;;18.00;37.60;;;;;;4254059;33;19980;-38
2021/10/17 09:25:55;;;;;;;;;;;18.00;37.60;;;;;;4254081;33;19976;-38
2021/10/17 09:28:28;;;;;;;;;;;17.90;37.70;;;;;;4253815;33;19973;-38
2021/10/17 09:31:09;;;;;;;;;;;17.90;37.80;;;;;;4253781;33;20389;-38
2021/10/17 09:33:43;;;;;;;;;;;17.90;38.00;;;;;;4254673;33;20465;-37
2021/10/17 09:36:29;;;;;;;;;;;17.80;38.20;;;;;;4254474;33;20068;-40
2021/10/17 09:39:08;;;;;;;;;;;17.80;38.30;;;;;;4253989;33;19988;-38
2021/10/17 09:41:36;;;;;;;;;;;17.80;38.50;;;;;;4253885;33;19989;-38
2021/10/17 09:44:03;;;;;;;;;;;17.80;38.70;;;;;;4230965;33;19965;-38
2021/10/17 09:46:29;;;;;;;;;;;17.80;38.70;;;;;;4262874;33;20075;-38
2021/10/17 09:48:56;;;;;;;;;;;17.70;38.70;;;;;;4268218;33;20067;-38
2021/10/17 09:51:27;;;;;;;;;;;17.80;38.70;;;;;;4268455;33;19976;-38
2021/10/17 09:53:59;;;;;;;;;;;17.80;38.60;;;;;;4282605;33;19975;-38
2021/10/17 09:56:33;;;;;;;;;;;17.80;38.50;;;;;;4282568;33;19980;-37
2021/10/17 09:59:04;;;;;;;;;;;17.80;38.50;;;;;;4282776;33;20055;-38
2021/10/17 10:01:31;;;;;;;;;;;17.80;38.50;;;;;;4371021;32;19961;-38
2021/10/17 10:03:59;;;;;;;;;;;17.80;39.20;;;;;;4373178;32;19963;-37
2021/10/17 10:06:25;;;;;;;;;;;17.80;38.50;;;;;;4373011;32;20082;-37
2021/10/17 10:08:57;;;;;;;;;;;17.90;38.50;;;;;;4373329;32;19970;-37
2021/10/17 10:11:27;;;;;;;;;;;17.90;38.50;;;;;;4340588;33;19986;-38
2021/10/17 10:13:56;;;;;;;;;;;17.90;38.50;;;;;;4340304;33;20119;-39
2021/10/17 10:16:24;;;;;;;;;;;18.00;38.50;;;;;;4340535;33;20005;-38
2021/10/17 10:18:58;;;;;;;;;;;18.00;38.30;;;;;;4342699;33;19967;-39
2021/10/17 10:21:24;;;;;;;;;;;18.10;38.20;;;;;;4331565;33;19974;-40
2021/10/17 10:23:52;;;;;;;;;;;18.10;38.00;;;;;;4343093;33;19982;-40
2021/10/17 10:26:22;;;;;;;;;;;18.10;38.00;;;;;;4331091;33;19971;-40
2021/10/17 10:28:49;;;;;;;;;;;18.20;38.10;;;;;;4343323;33;19990;-38
2021/10/17 10:31:40;;;;;;;;;;;18.20;38.00;;;;;;4330943;33;20418;-39
2021/10/17 10:34:32;;;;;;;;;;;18.20;37.90;;;;;;4343313;33;19974;-38
2021/10/17 10:37:20;;;;;;;;;;;18.30;37.90;;;;;;4315296;33;19978;-38
2021/10/17 10:40:05;;;;;;;;;;;18.40;37.60;;;;;;4343341;33;19967;-39
2021/10/17 10:42:34;;;;;;;;;;;18.50;37.40;;;;;;4343412;33;19977;-38
2021/10/17 10:45:39;;;;;;;;;;;18.50;37.20;;;;;;4342899;33;19986;-37
2021/10/17 10:48:14;;;;;;;;;;;18.50;37.10;;;;;;4301404;33;19982;-38
2021/10/17 10:50:42;;;;;;;;;;;18.50;37.00;;;;;;4313617;33;20065;-37
2021/10/17 10:53:09;;;;;;;;;;;18.50;37.00;;;;;;4313645;33;19979;-37
2021/10/17 10:55:45;;;;;;;;;;;18.40;37.00;;;;;;4313330;33;20003;-38
2021/10/17 10:58:36;;;;;;;;;;;18.40;37.20;;;;;;4313434;33;19963;-37
2021/10/17 11:01:02;;;;;;;;;;;18.30;37.10;;;;;;4313484;33;19987;-38
2021/10/17 11:03:30;;;;;;;;;;;18.40;37.30;;;;;;4313488;33;19995;-38
2021/10/17 11:06:05;;;;;;;;;;;18.40;37.40;;;;;;4301206;33;19978;-38
2021/10/17 11:08:37;;;;;;;;;;;18.40;37.30;;;;;;4313546;33;19987;-37
2021/10/17 11:11:03;;;;;;;;;;;18.40;37.30;;;;;;4313110;33;19967;-37
2021/10/17 11:13:34;;;;;;;;;;;18.40;37.30;;;;;;4313354;33;19987;-39
2021/10/17 11:16:01;;;;;;;;;;;18.40;37.30;;;;;;4312876;33;20055;-37
2021/10/17 11:18:30;;;;;;;;;;;18.40;37.50;;;;;;4328982;32;19971;-38
2021/10/17 11:20:56;;;;;;;;;;;18.40;37.60;;;;;;4345337;32;20471;-37
2021/10/17 11:23:24;;;;;;;;;;;18.30;37.70;;;;;;4346207;32;20497;-38
2021/10/17 11:25:55;;;;;;;;;;;18.20;37.70;;;;;;4359983;32;19986;-38
2021/10/17 11:28:22;;;;;;;;;;;18.10;37.90;;;;;;4359957;32;20388;-38
2021/10/17 11:30:48;;;;;;;;;;;18.10;38.10;;;;;;4360173;32;20071;-38
2021/10/17 11:33:20;;;;;;;;;;;18.00;38.10;;;;;;4359898;32;19966;-38
2021/10/17 11:35:47;;;;;;;;;;;17.90;38.40;;;;;;4360154;32;19978;-39
2021/10/17 11:38:14;;;;;;;;;;;17.80;38.50;;;;;;4345839;32;20042;-38
2021/10/17 11:40:41;;;;;;;;;;;17.60;38.60;;;;;;4359328;32;19981;-39
2021/10/17 11:43:07;;;;;;;;;;;17.50;38.90;;;;;;4359505;32;20965;-39
2021/10/17 11:45:45;;;;;;;;;;;17.50;39.00;;;;;;4362865;32;20095;-37
2021/10/17 11:48:16;;;;;;;;;;;17.40;39.10;;;;;;4374455;32;20043;-38
2021/10/17 11:50:44;;;;;;;;;;;17.40;39.10;;;;;;4360210;32;20437;-39
2021/10/17 11:53:11;;;;;;;;;;;17.40;39.10;;;;;;4374503;32;20431;-38
2021/10/17 11:55:38;;;;;;;;;;;17.40;39.10;;;;;;4374635;32;19985;-38
2021/10/17 11:58:12;;;;;;;;;;;17.40;39.10;;;;;;4374453;32;20055;-38
2021/10/17 12:00:38;;;;;;;;;;;17.40;39.10;;;;;;4374085;32;20012;-38
2021/10/17 12:03:04;;;;;;;;;;;17.40;39.00;;;;;;4374380;32;19966;-37
2021/10/17 12:05:30;;;;;;;;;;;17.40;39.00;;;;;;4374003;32;20397;-37
2021/10/17 12:07:58;;;;;;;;;;;17.40;39.00;;;;;;4374227;32;19974;-39
2021/10/17 12:10:30;;;;;;;;;;;17.40;39.00;;;;;;4374037;32;19985;-38
2021/10/17 12:13:03;;;;;;;;;;;17.40;38.90;;;;;;4374205;32;19984;-39
2021/10/17 12:15:30;;;;;;;;;;;17.40;39.00;;;;;;4374368;32;20469;-38
2021/10/17 12:18:04;;;;;;;;;;;17.30;39.00;;;;;;4373780;32;19981;-40
2021/10/17 12:20:32;;;;;;;;;;;17.30;39.10;;;;;;4374315;32;20037;-39
2021/10/17 12:23:01;;;;;;;;;;;17.30;39.20;;;;;;4373895;32;20414;-38
2021/10/17 12:25:28;;;;;;;;;;;17.20;39.20;;;;;;4360009;32;20045;-38
2021/10/17 12:27:54;;;;;;;;;;;17.20;39.40;;;;;;4360403;32;19976;-37
2021/10/17 12:30:32;;;;;;;;;;;17.10;39.40;;;;;;4373868;32;19999;-38
2021/10/17 12:32:59;;;;;;;;;;;17.10;39.60;;;;;;4373697;32;19973;-39
2021/10/17 12:35:30;;;;;;;;;;;17.00;39.60;;;;;;4373541;32;19993;-40
2021/10/17 12:38:07;;;;;;;;;;;17.10;39.80;;;;;;4373803;32;20398;-39
2021/10/17 12:40:34;;;;;;;;;;;17.00;39.80;;;;;;4373467;32;19969;-38
2021/10/17 12:43:02;;;;;;;;;;;17.00;39.80;;;;;;4373914;32;20033;-39
2021/10/17 12:45:30;;;;;;;;;;;17.00;39.90;;;;;;4370408;32;19979;-38
2021/10/17 12:47:56;;;;;;;;;;;17.00;40.00;;;;;;4345045;32;19985;-38
2021/10/17 12:50:25;;;;;;;;;;;17.00;40.00;;;;;;4358344;32;20369;-40
2021/10/17 12:52:59;;;;;;;;;;;17.10;40.10;;;;;;4358573;32;20058;-38
2021/10/17 12:55:30;;;;;;;;;;;17.10;40.30;;;;;;4358836;32;19958;-38
2021/10/17 12:58:15;;;;;;;;;;;17.20;40.30;;;;;;4358812;32;19994;-38
2021/10/17 13:00:43;;;;;;;;;;;17.30;40.30;;;;;;4358219;32;19997;-39
2021/10/17 13:03:19;;;;;;;;;;;17.40;40.10;;;;;;4358888;32;19994;-39
2021/10/17 13:05:56;;;;;;;;;;;17.50;40.00;;;;;;4358736;32;19973;-38
2021/10/17 13:08:27;;;;;;;;;;;17.60;39.80;;;;;;4358531;32;20492;-39
2021/10/17 13:11:11;;;;;;;;;;;17.70;39.60;;;;;;4358306;32;20006;-39
2021/10/17 13:13:37;;;;;;;;;;;17.80;39.40;;;;;;4358520;32;19962;-38
2021/10/17 13:16:04;;;;;;;;;;;17.90;39.20;;;;;;4358344;32;20452;-38
2021/10/17 13:18:30;;;;;;;;;;;17.90;39.00;;;;;;4358455;32;19982;-37
2021/10/17 13:20:57;;;;;;;;;;;17.90;38.90;;;;;;4358368;32;19959;-39
2021/10/17 13:23:23;;;;;;;;;;;17.90;38.80;;;;;;4358172;32;20050;-38
2021/10/17 13:25:54;;;;;;;;;;;17.80;38.70;;;;;;4344811;32;20403;-39
2021/10/17 13:28:20;;;;;;;;;;;17.80;38.70;;;;;;4358755;32;19977;-38
2021/10/17 13:30:47;;;;;;;;;;;17.80;38.80;;;;;;4358228;32;19963;-38
2021/10/17 13:33:15;;;;;;;;;;;17.80;38.80;;;;;;4358611;32;20078;-41
2021/10/17 13:35:42;;;;;;;;;;;17.90;39.00;;;;;;4358644;32;20039;-38
2021/10/17 13:38:08;;;;;;;;;;;17.90;38.90;;;;;;4358089;32;20051;-41
2021/10/17 13:40:34;;;;;;;;;;;18.00;38.80;;;;;;4358552;32;19978;-42
2021/10/17 13:43:03;;;;;;;;;;;18.00;38.60;;;;;;4358489;32;20472;-39
2021/10/17 13:45:30;;;;;;;;;;;18.10;38.50;;;;;;4361212;32;20091;-39
2021/10/17 13:47:56;;;;;;;;;;;18.10;38.20;;;;;;4373509;32;19989;-37
2021/10/17 13:50:23;;;;;;;;;;;18.20;38.10;;;;;;4372813;32;19962;-39
2021/10/17 13:52:49;;;;;;;;;;;18.20;38.00;;;;;;4360019;32;19981;-38
2021/10/17 13:55:15;;;;;;;;;;;18.20;37.80;;;;;;4375893;32;19968;-38
2021/10/17 13:57:42;;;;;;;;;;;18.20;37.80;;;;;;4376291;32;19964;-37
2021/10/17 14:00:09;;;;;;;;;;;18.20;37.80;;;;;;4376041;32;19966;-37
2021/10/17 14:02:36;;;;;;;;;;;18.20;37.80;;;;;;4376036;32;19965;-38
2021/10/17 14:05:04;;;;;;;;;;;18.10;37.70;;;;;;4375867;32;19996;-39
2021/10/17 14:07:30;;;;;;;;;;;18.10;37.70;;;;;;4375946;32;19989;-38
2021/10/17 14:09:56;;;;;;;;;;;18.00;37.70;;;;;;4376279;32;19961;-38
2021/10/17 14:12:22;;;;;;;;;;;18.00;37.70;;;;;;4375843;32;20053;-37
2021/10/17 14:14:48;;;;;;;;;;;17.90;37.70;;;;;;4375405;32;19981;-39
2021/10/17 14:17:15;;;;;;;;;;;17.90;37.80;;;;;;4376218;32;20068;-38
2021/10/17 14:19:41;;;;;;;;;;;17.90;37.80;;;;;;4375615;32;19959;-40